Pagrindinis puslapis
METAR-TAF:

METAR-TAF

Oro uostai :

Singapūras, Singapūras

platuma: 01-22N, ilguma: 103-59E, Aukštis: 5 m

Dabartinis oras

Ataskaita buvo paskelbta 23 minutes, ne 16:00 UTC
Vėjas 7 kt iš Šiaurės/Šiaurės Rytų, svyruoja nuo Vakarų ir Rytų
Temperatūra 27°C
Drėgmė 84%
Slėgis 1015 hPa
Matomumas 10 km arba daugiau
Mažai debesys ne aukštis 1800 ft
Su prošvaistėmis ne aukštis 30000 ft

METAR: WSSS 211600Z 02007KT 280V090 9999 FEW018 BKN300 27/24 Q1015 NOSIG

Laikas: 00:23 (16:23 UTC)

Prognozė

Ataskaita buvo paskelbta 5 valandos ir 23 minutes, ne 11:00 UTC
Prognozė galioja nuo 21 metu 12 UTC su 22 metu 18 UTC
Vėjas 13 kt iš Šiaurės/Šiaurės Rytų
Matomumas 10 km arba daugiau
Mažai debesys ne aukštis 1500 ft
Išsisklaidę debesys ne aukštis 2000 ft
Laikinai
nuo 22 metu 04 UTC su 22 metu 10 UTC
Vėjas 15 kt iš Šiaurės Rytų su gūsio iki 25 kt

TAF: WSSS 211100Z 2112/2218 03013KT 9999 FEW015 SCT020 TEMPO 2204/2210 04015G25KT

Orai ataskaitas ir orų prognozės (METAR, TAF).

turimą stotys yra geltonos ir raudonos taškus žemėlapyje.

Perkelti pele per norėdami pamatyti stoties vardą.

Tada spustelėkite, norėdami matyti oro stebėjimo ir prognozės.

Norėdami pakeisti žemėlapį: spustelėkite ant žalios mygtukų su juodo kryžiaus žemyn,; žalią mygtuką su brūkšneliu, jei norite nutolinti; arba žalių rodyklių gretimoms žemėlapius.


METAR-TAF: